Create Custom Reports and Graphics: Custom Report

Current Observations Map

Current Observations

15 Minute Data

North

Latest Observations

15 Minute Data | America/Los_Angeles
as of 11/18/18 6:43 AM PST
Station Date Time Temp (°F) Dew Pt (°F) RH (%) Wind Dir (°) Wind Spd (mph) Wind Gust (mph) Latest Rain (In) Daily Rain (In) Daily Min Temp (°F) Daily Max Temp (°F) Day
Cooley-Rockpile 11/18/18 0630 46.6   5.2 29.4   7.5 51 ESE | 108 2.0 3.3 0.00 0.00 46.2 52.1 11/18/18
Cooley Lower Remote 11/18/18 0630 46.1   5.3 34.7   11.3 64 N | 2 0.8 2.0 0.00 0.00 44.9 49.0 11/18/18
Rancho Alexander-Cloverdale 11/18/18 0630 26.2   9.8 23.8   2.2 90 ESE | 122 0.6 2.3 0.00 0.00 24.9 29.0 11/18/18
Ranch 38 (Cloverdale-SE) 11/18/18 0630 37.5   6.8 28.2   4.1 69 N | 354 3.1 4.5 0.00 0.00 36.7 44.6 11/18/18
Geyserville (HOF) 11/18/18 0630 24.8   0.0 22.7   0.2 92 NW | 325 0.1 1.3 0.00 0.00 24.1 33.0 11/18/18
Geyserville Ranch 3 11/18/18 0630 27.1   0.1 25.5   0.1 94 WSW | 243 0.1 1.0 0.00 0.00 26.7 32.8 11/18/18
Ranch 40 (Geyserville-NE) 11/18/18 0630 42.2   0.4 34.7   8.9 74 E | 90 1.4 3.0 0.00 0.00 39.1 45.4 11/18/18
Geyserville - S (Nervo Station) 11/18/18 0630 32.0   1.5 30.8   1.9 96 NNE | 15 0.4 2.4 0.00 0.00 31.3 39.5 11/18/18
Alexander Valley (PIC) 11/18/18 0630 22.7   0.6 17.7   0.1 81 N | 9 0.0 0.9 0.00 0.00 22.4 27.8 11/18/18
Lytton (RVO) 11/18/18 0630 21.8   1.0 19.0   0.8 89 N | 0 0.0 0.0 0.00 0.00 21.5 28.4 11/18/18
Dry Creek Valley 11/18/18 0630 26.8   0.6 25.2   0.6 94 NW | 307 0.2 0.8 0.00 0.00 26.5 31.3 11/18/18

Central

Latest Observations

15 Minute Data | America/Los_Angeles
as of 11/18/18 6:43 AM PST
Station Date Time Temp (°F) Dew Pt (°F) RH (%) Wind Dir (°) Wind Spd (mph) Wind Gust (mph) Latest Rain (In) Daily Rain (In) Daily Min Temp (°F) Daily Max Temp (°F) Day
Healdsburg - S (Sodini) 11/18/18 0630 28.3   0.0 27.5   1.1 97 ENE | 66 0.1 1.4 0.00 0.00 27.7 33.9 11/18/18
Ranch 8 (Windsor-NW) 11/18/18 0630 32.6   1.1 31.5   0.9 96 NNE | 30 2.1 3.6 0.00 0.00 32.4 38.2 11/18/18
Foothill Ranch 16 11/18/18 0630 27.4   0.3 26.9   1.5 98 E | 95 0.0 1.3 0.00 0.00 27.2 33.0 11/18/18
Airport Ranch 14 11/18/18 0630 27.2   0.1 26.6   0.5 98 ENE | 59 0.4 1.5 0.00 0.00 27.0 33.8 11/18/18
Garrison Ranch 12 11/18/18 0630 27.4   0.2 26.5   0.7 96 N | 0 0.0 0.0 0.00 0.00 26.5 32.0 11/18/18
Forestville (SHO) 11/18/18 0630 30.4   0.1 29.1   1.1 95 N | 0 0.0 0.0 0.00 0.00 29.8 36.9 11/18/18
Ranch 30 (Forestville-NE) 11/18/18 0630 33.2   4.1 32.8   4.1 99 SE | 144 0.3 1.6 0.00 0.00 31.9 34.7 11/18/18
Robert Thomas Vineyard (RTV) 11/18/18 0630 32.2   3.2 31.6   3.2 98 NNE | 33 1.4 2.0 0.00 0.00 31.4 34.3 11/18/18
Crinella 11/18/18 0630 26.6   0.2 26.1   0.7 98 WNW | 297 0.5 1.5 0.00 0.00 26.3 33.3 11/18/18
Denner Ranch Base 11/18/18 0630 28.5   0.9 28.4   1.8 100 NE | 51 1.9 2.6 0.00 0.00 28.3 34.7 11/18/18
Sebastopol (BTO) 11/18/18 0630 31.9   5.7 31.9   5.7 100 ENE | 64 0.1 1.1 0.01 0.01 31.6 39.4 11/18/18
Hirsch Vineyards 11/18/18 0630 45.2   9.2 45.2   20.8 100 N | 352 2.9 4.6 0.00 0.00 44.8 49.6 11/18/18

South

Latest Observations

15 Minute Data | America/Los_Angeles
as of 11/18/18 6:43 AM PST
Station Date Time Temp (°F) Dew Pt (°F) RH (%) Wind Spd (mph) Wind Dir (°) Wind Gust (mph) Latest Rain (In) Daily Rain (In) Daily Min Temp (°F) Daily Max Temp (°F) Day
Lower Bennett Valley 11/18/18 0630 29.6   2.8 29.2   4.2 98   6 0.3 NNW | 339 1.4   0.7 0.00 0.00 25.4 30.2 11/18/18
Kenwood (KEN) 11/18/18 0630 25.3   1.0 24.3   2.0 96   4 0.5 NW | 310 1.8   0.9 0.00 0.00 24.8 31.6 11/18/18
Sonoma Valley (Bedrock) 11/18/18 0630 28.6   0.1 27.6   2.5 96   10 1.1 N | 7 2.4   0.0 0.00 0.00 27.3 34.1 11/18/18
Osborn Preserve-SSU 11/18/18 0400 44.0   2.5 - - 3.4 NNE | 30 4.4   0.2 0.00 0.00 43.2 45.8 11/18/18
Arnold (Sonoma) 11/18/18 0630 29.4   0.4 28.4   3.2 96   11 1.6 W | 277 2.7   1.1 0.00 0.00 28.3 39.4 11/18/18
Schellville 11/18/18 0630 28.7   1.2 28.2   1.6 98   2 0.0 N | 0 0.0   0.0 0.00 0.00 27.9 32.4 11/18/18
Napoli (Sonoma-SE) 11/18/18 0630 27.3   0.9 26.2   0.0 95   4 0.0 ESE | 105 1.4   1.4 0.00 0.00 26.6 32.8 11/18/18
Huichica Upper 11/18/18 0630 42.0   3.9 39.2   11.0 90   40 2.2 NNW | 337 2.9   2.1 - - 41.0 46.8 11/18/18
Huichica-Carneros 11/18/18 0630 29.2   0.9 27.7   2.0 94   11 0.8 NNE | 22 1.9   0.2 0.00 0.00 29.0 33.9 11/18/18
Frates Ranch 10 11/18/18 0630 38.4   11.0 38.4   13.6 100   10 2.0 WNW | 284 3.6   2.9 0.00 0.00 32.4 39.4 11/18/18
Sleepy Hollow-Lakeville 11/18/18 0630 39.5   11.9 39.5   13.8 100   8 4.2 NW | 325 9.3   8.1 0.00 0.00 34.2 43.3 11/18/18